sensor_id;sensor_type;location;lat;lon;timestamp;pressure;altitude;pressure_sealevel;temperature;humidity
64211;BME280;50528;48.514;14.394;2023-01-28T00:00:27;94025.52;;;-0.85;80.06
64211;BME280;50528;48.514;14.394;2023-01-28T00:01:20;94027.00;;;-0.85;80.14
64211;BME280;50528;48.514;14.394;2023-01-28T00:01:53;94026.46;;;-0.85;80.36
64211;BME280;50528;48.514;14.394;2023-01-28T00:02:27;94024.67;;;-0.85;80.13
64211;BME280;50528;48.514;14.394;2023-01-28T00:03:00;94027.13;;;-0.83;80.28
64211;BME280;50528;48.514;14.394;2023-01-28T00:03:34;94028.84;;;-0.82;80.26
64211;BME280;50528;48.514;14.394;2023-01-28T00:04:07;94024.09;;;-0.81;80.08
64211;BME280;50528;48.514;14.394;2023-01-28T00:04:41;94023.84;;;-0.82;80.06
64211;BME280;50528;48.514;14.394;2023-01-28T00:05:14;94023.84;;;-0.82;80.12
64211;BME280;50528;48.514;14.394;2023-01-28T00:05:48;94024.67;;;-0.82;80.21
64211;BME280;50528;48.514;14.394;2023-01-28T00:06:25;94025.23;;;-0.82;80.35
64211;BME280;50528;48.514;14.394;2023-01-28T00:06:59;94026.16;;;-0.81;80.38
64211;BME280;50528;48.514;14.394;2023-01-28T00:07:34;94022.86;;;-0.81;80.11
64211;BME280;50528;48.514;14.394;2023-01-28T00:08:08;94026.13;;;-0.79;80.16
64211;BME280;50528;48.514;14.394;2023-01-28T00:08:42;94025.06;;;-0.80;79.96
64211;BME280;50528;48.514;14.394;2023-01-28T00:09:15;94023.83;;;-0.80;80.04
64211;BME280;50528;48.514;14.394;2023-01-28T00:09:51;94024.80;;;-0.79;80.35
64211;BME280;50528;48.514;14.394;2023-01-28T00:10:26;94026.80;;;-0.79;80.02
64211;BME280;50528;48.514;14.394;2023-01-28T00:11:01;94026.44;;;-0.79;80.08
64211;BME280;50528;48.514;14.394;2023-01-28T00:11:35;94025.89;;;-0.78;80.01
64211;BME280;50528;48.514;14.394;2023-01-28T00:12:09;94026.38;;;-0.78;79.97
64211;BME280;50528;48.514;14.394;2023-01-28T00:12:44;94026.38;;;-0.78;79.83
64211;BME280;50528;48.514;14.394;2023-01-28T00:13:18;94026.02;;;-0.78;79.83
64211;BME280;50528;48.514;14.394;2023-01-28T00:13:52;94025.95;;;-0.79;79.71
64211;BME280;50528;48.514;14.394;2023-01-28T00:14:26;94023.48;;;-0.80;79.85
64211;BME280;50528;48.514;14.394;2023-01-28T00:15:00;94026.03;;;-0.81;79.77
64211;BME280;50528;48.514;14.394;2023-01-28T00:15:33;94023.68;;;-0.82;79.90
64211;BME280;50528;48.514;14.394;2023-01-28T00:16:07;94027.10;;;-0.82;79.98
64211;BME280;50528;48.514;14.394;2023-01-28T00:16:41;94026.58;;;-0.82;79.89
64211;BME280;50528;48.514;14.394;2023-01-28T00:17:15;94026.00;;;-0.81;80.04
64211;BME280;50528;48.514;14.394;2023-01-28T00:17:48;94025.29;;;-0.81;79.90
64211;BME280;50528;48.514;14.394;2023-01-28T00:18:25;94023.42;;;-0.81;80.05
64211;BME280;50528;48.514;14.394;2023-01-28T00:18:58;94027.19;;;-0.81;80.05
64211;BME280;50528;48.514;14.394;2023-01-28T00:19:32;94024.80;;;-0.81;79.92
64211;BME280;50528;48.514;14.394;2023-01-28T00:20:05;94027.80;;;-0.80;79.96
64211;BME280;50528;48.514;14.394;2023-01-28T00:20:41;94026.48;;;-0.81;79.96
64211;BME280;50528;48.514;14.394;2023-01-28T00:21:15;94029.38;;;-0.80;79.92
64211;BME280;50528;48.514;14.394;2023-01-28T00:21:48;94029.35;;;-0.80;79.83
64211;BME280;50528;48.514;14.394;2023-01-28T00:22:22;94028.71;;;-0.81;79.81
64211;BME280;50528;48.514;14.394;2023-01-28T00:22:55;94030.73;;;-0.80;79.65
64211;BME280;50528;48.514;14.394;2023-01-28T00:23:40;94033.45;;;-0.82;79.40
64211;BME280;50528;48.514;14.394;2023-01-28T00:24:15;94033.02;;;-0.82;79.50
64211;BME280;50528;48.514;14.394;2023-01-28T00:24:48;94029.90;;;-0.84;79.53
64211;BME280;50528;48.514;14.394;2023-01-28T00:25:22;94034.39;;;-0.85;79.67
64211;BME280;50528;48.514;14.394;2023-01-28T00:25:59;94031.84;;;-0.86;79.49
64211;BME280;50528;48.514;14.394;2023-01-28T00:26:34;94034.85;;;-0.86;79.50
64211;BME280;50528;48.514;14.394;2023-01-28T00:27:08;94035.45;;;-0.87;79.52
64211;BME280;50528;48.514;14.394;2023-01-28T00:27:41;94032.23;;;-0.88;79.48
64211;BME280;50528;48.514;14.394;2023-01-28T00:28:15;94034.76;;;-0.87;79.51
64211;BME280;50528;48.514;14.394;2023-01-28T00:28:48;94036.30;;;-0.87;79.54
64211;BME280;50528;48.514;14.394;2023-01-28T00:29:22;94034.84;;;-0.87;79.45
64211;BME280;50528;48.514;14.394;2023-01-28T00:29:55;94034.45;;;-0.88;79.42
64211;BME280;50528;48.514;14.394;2023-01-28T00:30:28;94037.02;;;-0.87;79.49
64211;BME280;50528;48.514;14.394;2023-01-28T00:31:06;94024.58;;;-0.93;79.60
64211;BME280;50528;48.514;14.394;2023-01-28T00:31:42;94029.73;;;-0.88;79.68
64211;BME280;50528;48.514;14.394;2023-01-28T00:32:17;94031.64;;;-0.88;79.45
64211;BME280;50528;48.514;14.394;2023-01-28T00:32:52;94034.41;;;-0.88;79.47
64211;BME280;50528;48.514;14.394;2023-01-28T00:33:28;94029.37;;;-0.88;79.39
64211;BME280;50528;48.514;14.394;2023-01-28T00:34:02;94033.80;;;-0.89;79.45
64211;BME280;50528;48.514;14.394;2023-01-28T00:34:37;94033.01;;;-0.90;79.33
64211;BME280;50528;48.514;14.394;2023-01-28T00:35:12;94034.40;;;-0.90;79.24
64211;BME280;50528;48.514;14.394;2023-01-28T00:35:46;94034.82;;;-0.90;79.43
64211;BME280;50528;48.514;14.394;2023-01-28T00:36:21;94037.02;;;-0.90;79.41
64211;BME280;50528;48.514;14.394;2023-01-28T00:36:55;94036.20;;;-0.91;79.18
64211;BME280;50528;48.514;14.394;2023-01-28T00:37:36;94032.52;;;-0.92;79.46
64211;BME280;50528;48.514;14.394;2023-01-28T00:38:10;94036.98;;;-0.93;79.40
64211;BME280;50528;48.514;14.394;2023-01-28T00:38:50;94037.02;;;-0.93;79.14
64211;BME280;50528;48.514;14.394;2023-01-28T00:39:25;94039.49;;;-0.95;79.34
64211;BME280;50528;48.514;14.394;2023-01-28T00:39:59;94038.75;;;-0.95;79.32
64211;BME280;50528;48.514;14.394;2023-01-28T00:40:34;94041.33;;;-0.95;79.26
64211;BME280;50528;48.514;14.394;2023-01-28T00:41:13;94038.08;;;-0.95;79.24
64211;BME280;50528;48.514;14.394;2023-01-28T00:41:47;94037.11;;;-0.96;79.22
64211;BME280;50528;48.514;14.394;2023-01-28T00:42:21;94036.25;;;-0.95;79.27
64211;BME280;50528;48.514;14.394;2023-01-28T00:42:54;94040.37;;;-0.95;79.14
64211;BME280;50528;48.514;14.394;2023-01-28T00:43:28;94037.15;;;-0.96;79.01
64211;BME280;50528;48.514;14.394;2023-01-28T00:44:01;94034.56;;;-1.00;79.14
64211;BME280;50528;48.514;14.394;2023-01-28T00:44:35;94040.05;;;-0.97;79.09
64211;BME280;50528;48.514;14.394;2023-01-28T00:45:09;94037.92;;;-0.97;79.17
64211;BME280;50528;48.514;14.394;2023-01-28T00:45:42;94037.80;;;-0.97;79.13
64211;BME280;50528;48.514;14.394;2023-01-28T00:46:22;94037.05;;;-0.98;79.07
64211;BME280;50528;48.514;14.394;2023-01-28T00:46:55;94037.64;;;-0.99;79.28
64211;BME280;50528;48.514;14.394;2023-01-28T00:47:29;94040.27;;;-0.99;79.12
64211;BME280;50528;48.514;14.394;2023-01-28T00:48:03;94039.05;;;-0.98;79.05
64211;BME280;50528;48.514;14.394;2023-01-28T00:48:37;94039.24;;;-0.98;79.18
64211;BME280;50528;48.514;14.394;2023-01-28T00:49:12;94037.19;;;-0.98;79.22
64211;BME280;50528;48.514;14.394;2023-01-28T00:49:46;94036.48;;;-0.98;79.16
64211;BME280;50528;48.514;14.394;2023-01-28T00:50:19;94037.38;;;-0.98;79.17
64211;BME280;50528;48.514;14.394;2023-01-28T00:50:58;94037.25;;;-0.98;79.16
64211;BME280;50528;48.514;14.394;2023-01-28T00:51:34;94040.89;;;-0.99;79.10
64211;BME280;50528;48.514;14.394;2023-01-28T00:52:07;94040.73;;;-0.99;79.22
64211;BME280;50528;48.514;14.394;2023-01-28T00:52:42;94042.20;;;-0.99;79.13
64211;BME280;50528;48.514;14.394;2023-01-28T00:53:16;94043.27;;;-1.00;79.10
64211;BME280;50528;48.514;14.394;2023-01-28T00:53:50;94043.23;;;-0.99;79.15
64211;BME280;50528;48.514;14.394;2023-01-28T00:54:23;94046.00;;;-1.00;79.14
64211;BME280;50528;48.514;14.394;2023-01-28T00:54:57;94038.55;;;-1.04;79.32
64211;BME280;50528;48.514;14.394;2023-01-28T00:55:31;94043.11;;;-0.98;79.17
64211;BME280;50528;48.514;14.394;2023-01-28T00:56:06;94046.60;;;-0.99;79.06
64211;BME280;50528;48.514;14.394;2023-01-28T00:56:39;94044.41;;;-0.99;79.20
64211;BME280;50528;48.514;14.394;2023-01-28T00:57:13;94044.83;;;-0.99;78.98
64211;BME280;50528;48.514;14.394;2023-01-28T00:57:46;94044.98;;;-0.98;79.09
64211;BME280;50528;48.514;14.394;2023-01-28T00:58:20;94045.35;;;-0.98;78.98
64211;BME280;50528;48.514;14.394;2023-01-28T00:58:56;94048.11;;;-0.99;79.29
64211;BME280;50528;48.514;14.394;2023-01-28T00:59:29;94046.48;;;-0.99;79.10
64211;BME280;50528;48.514;14.394;2023-01-28T01:00:04;94047.83;;;-0.99;79.03
64211;BME280;50528;48.514;14.394;2023-01-28T01:00:38;94046.83;;;-0.98;78.77
64211;BME280;50528;48.514;14.394;2023-01-28T01:01:25;94049.14;;;-0.99;78.59
64211;BME280;50528;48.514;14.394;2023-01-28T01:01:59;94053.13;;;-1.03;78.77
64211;BME280;50528;48.514;14.394;2023-01-28T01:02:44;94049.11;;;-1.06;79.06
64211;BME280;50528;48.514;14.394;2023-01-28T01:03:19;94049.77;;;-1.07;79.08
64211;BME280;50528;48.514;14.394;2023-01-28T01:03:53;94053.58;;;-1.07;78.97
64211;BME280;50528;48.514;14.394;2023-01-28T01:04:35;94052.32;;;-1.08;78.95
64211;BME280;50528;48.514;14.394;2023-01-28T01:05:08;94051.48;;;-1.08;78.97
64211;BME280;50528;48.514;14.394;2023-01-28T01:05:42;94050.16;;;-1.09;78.86
64211;BME280;50528;48.514;14.394;2023-01-28T01:06:15;94050.97;;;-1.08;78.83
64211;BME280;50528;48.514;14.394;2023-01-28T01:06:49;94049.52;;;-1.08;79.02
64211;BME280;50528;48.514;14.394;2023-01-28T01:07:23;94051.52;;;-1.06;79.16
64211;BME280;50528;48.514;14.394;2023-01-28T01:08:04;94054.25;;;-1.07;79.04
64211;BME280;50528;48.514;14.394;2023-01-28T01:08:38;94056.41;;;-1.06;78.96
64211;BME280;50528;48.514;14.394;2023-01-28T01:09:17;94052.52;;;-1.08;78.94
64211;BME280;50528;48.514;14.394;2023-01-28T01:09:51;94050.16;;;-1.09;78.94
64211;BME280;50528;48.514;14.394;2023-01-28T01:10:25;94051.26;;;-1.09;79.03
64211;BME280;50528;48.514;14.394;2023-01-28T01:11:00;94051.51;;;-1.09;78.92
64211;BME280;50528;48.514;14.394;2023-01-28T01:11:34;94052.04;;;-1.11;78.93
64211;BME280;50528;48.514;14.394;2023-01-28T01:12:08;94053.90;;;-1.09;79.03
64211;BME280;50528;48.514;14.394;2023-01-28T01:12:41;94050.94;;;-1.08;78.96
64211;BME280;50528;48.514;14.394;2023-01-28T01:13:14;94052.03;;;-1.07;78.87
64211;BME280;50528;48.514;14.394;2023-01-28T01:13:56;94052.95;;;-1.06;79.18
64211;BME280;50528;48.514;14.394;2023-01-28T01:14:30;94053.45;;;-1.06;78.84
64211;BME280;50528;48.514;14.394;2023-01-28T01:15:04;94053.38;;;-1.07;79.04
64211;BME280;50528;48.514;14.394;2023-01-28T01:15:41;94054.50;;;-1.06;79.10
64211;BME280;50528;48.514;14.394;2023-01-28T01:16:14;94057.35;;;-1.06;78.80
64211;BME280;50528;48.514;14.394;2023-01-28T01:16:48;94055.01;;;-1.06;79.01
64211;BME280;50528;48.514;14.394;2023-01-28T01:17:24;94053.71;;;-1.08;78.71
64211;BME280;50528;48.514;14.394;2023-01-28T01:17:57;94053.92;;;-1.09;79.06
64211;BME280;50528;48.514;14.394;2023-01-28T01:18:31;94056.19;;;-1.09;78.94
64211;BME280;50528;48.514;14.394;2023-01-28T01:19:06;94056.86;;;-1.09;78.87
64211;BME280;50528;48.514;14.394;2023-01-28T01:19:41;94054.36;;;-1.10;78.69
64211;BME280;50528;48.514;14.394;2023-01-28T01:20:23;94055.20;;;-1.09;78.96
64211;BME280;50528;48.514;14.394;2023-01-28T01:20:57;94052.32;;;-1.10;78.85
64211;BME280;50528;48.514;14.394;2023-01-28T01:21:31;94056.90;;;-1.11;78.88
64211;BME280;50528;48.514;14.394;2023-01-28T01:22:04;94059.25;;;-1.10;79.09
64211;BME280;50528;48.514;14.394;2023-01-28T01:22:39;94057.87;;;-1.10;78.72
64211;BME280;50528;48.514;14.394;2023-01-28T01:23:12;94058.80;;;-1.11;78.85
64211;BME280;50528;48.514;14.394;2023-01-28T01:23:46;94058.61;;;-1.11;78.85
64211;BME280;50528;48.514;14.394;2023-01-28T01:24:19;94054.75;;;-1.12;78.45
64211;BME280;50528;48.514;14.394;2023-01-28T01:24:55;94057.41;;;-1.14;78.70
64211;BME280;50528;48.514;14.394;2023-01-28T01:25:29;94053.23;;;-1.16;78.49
64211;BME280;50528;48.514;14.394;2023-01-28T01:26:03;94052.63;;;-1.17;78.45
64211;BME280;50528;48.514;14.394;2023-01-28T01:26:37;94052.96;;;-1.17;78.79
64211;BME280;50528;48.514;14.394;2023-01-28T01:27:10;94052.25;;;-1.18;78.82
64211;BME280;50528;48.514;14.394;2023-01-28T01:27:46;94052.00;;;-1.19;78.72
64211;BME280;50528;48.514;14.394;2023-01-28T01:28:21;94051.39;;;-1.20;78.77
64211;BME280;50528;48.514;14.394;2023-01-28T01:28:54;94053.74;;;-1.19;78.74
64211;BME280;50528;48.514;14.394;2023-01-28T01:29:28;94053.58;;;-1.19;78.71
64211;BME280;50528;48.514;14.394;2023-01-28T01:30:02;94051.23;;;-1.18;79.05
64211;BME280;50528;48.514;14.394;2023-01-28T01:30:36;94053.97;;;-1.17;78.80
64211;BME280;50528;48.514;14.394;2023-01-28T01:31:12;94051.08;;;-1.17;78.78
64211;BME280;50528;48.514;14.394;2023-01-28T01:31:47;94052.81;;;-1.17;79.03
64211;BME280;50528;48.514;14.394;2023-01-28T01:32:20;94051.13;;;-1.16;78.65
64211;BME280;50528;48.514;14.394;2023-01-28T01:32:54;94050.67;;;-1.18;78.76
64211;BME280;50528;48.514;14.394;2023-01-28T01:33:29;94048.70;;;-1.17;78.59
64211;BME280;50528;48.514;14.394;2023-01-28T01:34:03;94050.61;;;-1.16;78.45
64211;BME280;50528;48.514;14.394;2023-01-28T01:34:36;94050.31;;;-1.18;78.46
64211;BME280;50528;48.514;14.394;2023-01-28T01:35:10;94050.61;;;-1.19;78.50
64211;BME280;50528;48.514;14.394;2023-01-28T01:35:52;94052.16;;;-1.22;78.54
64211;BME280;50528;48.514;14.394;2023-01-28T01:36:26;94049.88;;;-1.24;78.61
64211;BME280;50528;48.514;14.394;2023-01-28T01:37:00;94049.37;;;-1.24;78.46
64211;BME280;50528;48.514;14.394;2023-01-28T01:37:34;94047.64;;;-1.25;78.60
64211;BME280;50528;48.514;14.394;2023-01-28T01:38:10;94052.67;;;-1.27;78.51
64211;BME280;50528;48.514;14.394;2023-01-28T01:38:46;94053.32;;;-1.29;78.61
64211;BME280;50528;48.514;14.394;2023-01-28T01:39:20;94051.61;;;-1.29;78.77
64211;BME280;50528;48.514;14.394;2023-01-28T01:39:53;94054.23;;;-1.29;78.70
64211;BME280;50528;48.514;14.394;2023-01-28T01:40:28;94055.20;;;-1.28;78.85
64211;BME280;50528;48.514;14.394;2023-01-28T01:41:02;94054.35;;;-1.27;78.74
64211;BME280;50528;48.514;14.394;2023-01-28T01:41:37;94053.84;;;-1.27;78.63
64211;BME280;50528;48.514;14.394;2023-01-28T01:42:12;94054.52;;;-1.27;78.71
64211;BME280;50528;48.514;14.394;2023-01-28T01:42:45;94052.47;;;-1.30;78.37
64211;BME280;50528;48.514;14.394;2023-01-28T01:43:21;94057.05;;;-1.29;78.66
64211;BME280;50528;48.514;14.394;2023-01-28T01:44:01;94053.39;;;-1.30;78.61
64211;BME280;50528;48.514;14.394;2023-01-28T01:45:29;94055.39;;;-1.33;78.59
64211;BME280;50528;48.514;14.394;2023-01-28T01:46:05;94054.86;;;-1.37;78.48
64211;BME280;50528;48.514;14.394;2023-01-28T01:46:44;94053.04;;;-1.40;78.52
64211;BME280;50528;48.514;14.394;2023-01-28T01:47:24;94058.13;;;-1.41;78.67
64211;BME280;50528;48.514;14.394;2023-01-28T01:48:06;94056.08;;;-1.42;78.68
64211;BME280;50528;48.514;14.394;2023-01-28T01:48:44;94061.17;;;-1.43;78.80
64211;BME280;50528;48.514;14.394;2023-01-28T01:49:21;94057.48;;;-1.44;78.95
64211;BME280;50528;48.514;14.394;2023-01-28T01:49:56;94060.12;;;-1.43;78.82
64211;BME280;50528;48.514;14.394;2023-01-28T01:50:41;94063.21;;;-1.43;78.92
64211;BME280;50528;48.514;14.394;2023-01-28T01:51:21;94065.39;;;-1.44;78.92
64211;BME280;50528;48.514;14.394;2023-01-28T01:52:00;94064.23;;;-1.45;78.90
64211;BME280;50528;48.514;14.394;2023-01-28T01:52:35;94064.02;;;-1.44;79.12
64211;BME280;50528;48.514;14.394;2023-01-28T01:53:14;94063.60;;;-1.43;78.86
64211;BME280;50528;48.514;14.394;2023-01-28T01:53:52;94064.46;;;-1.43;78.98
64211;BME280;50528;48.514;14.394;2023-01-28T01:54:28;94064.81;;;-1.42;78.68
64211;BME280;50528;48.514;14.394;2023-01-28T01:55:07;94063.24;;;-1.43;78.61
64211;BME280;50528;48.514;14.394;2023-01-28T01:55:45;94064.98;;;-1.45;78.51
64211;BME280;50528;48.514;14.394;2023-01-28T01:56:26;94067.34;;;-1.50;78.14
64211;BME280;50528;48.514;14.394;2023-01-28T01:57:02;94064.16;;;-1.56;78.32
64211;BME280;50528;48.514;14.394;2023-01-28T01:57:37;94067.55;;;-1.59;78.68
64211;BME280;50528;48.514;14.394;2023-01-28T01:58:14;94066.55;;;-1.60;78.61
64211;BME280;50528;48.514;14.394;2023-01-28T01:58:52;94067.30;;;-1.63;78.71
64211;BME280;50528;48.514;14.394;2023-01-28T01:59:29;94069.98;;;-1.64;78.75
64211;BME280;50528;48.514;14.394;2023-01-28T02:00:07;94066.05;;;-1.64;78.76
64211;BME280;50528;48.514;14.394;2023-01-28T02:00:46;94067.05;;;-1.64;78.88
64211;BME280;50528;48.514;14.394;2023-01-28T02:01:22;94067.02;;;-1.63;78.68
64211;BME280;50528;48.514;14.394;2023-01-28T02:01:59;94068.79;;;-1.64;78.85
64211;BME280;50528;48.514;14.394;2023-01-28T02:02:38;94069.39;;;-1.65;78.78
64211;BME280;50528;48.514;14.394;2023-01-28T02:03:12;94066.15;;;-1.66;78.86
64211;BME280;50528;48.514;14.394;2023-01-28T02:04:32;94069.48;;;-1.66;78.44
64211;BME280;50528;48.514;14.394;2023-01-28T02:04:56;94066.88;;;-1.73;78.67
64211;BME280;50528;48.514;14.394;2023-01-28T02:05:30;94067.97;;;-1.74;78.73
64211;BME280;50528;48.514;14.394;2023-01-28T02:06:03;94063.38;;;-1.77;78.85
64211;BME280;50528;48.514;14.394;2023-01-28T02:06:40;94069.86;;;-1.72;78.71
64211;BME280;50528;48.514;14.394;2023-01-28T02:07:15;94069.66;;;-1.72;78.81
64211;BME280;50528;48.514;14.394;2023-01-28T02:07:54;94068.11;;;-1.70;78.91
64211;BME280;50528;48.514;14.394;2023-01-28T02:08:53;94071.27;;;-1.72;78.96
64211;BME280;50528;48.514;14.394;2023-01-28T02:09:33;94070.01;;;-1.72;78.74
64211;BME280;50528;48.514;14.394;2023-01-28T02:10:09;94069.45;;;-1.73;78.86
64211;BME280;50528;48.514;14.394;2023-01-28T02:10:44;94070.16;;;-1.73;78.85
64211;BME280;50528;48.514;14.394;2023-01-28T02:11:19;94072.92;;;-1.73;78.86
64211;BME280;50528;48.514;14.394;2023-01-28T02:11:59;94069.33;;;-1.72;78.83
64211;BME280;50528;48.514;14.394;2023-01-28T02:12:36;94069.17;;;-1.71;78.89
64211;BME280;50528;48.514;14.394;2023-01-28T02:13:11;94068.81;;;-1.72;78.75
64211;BME280;50528;48.514;14.394;2023-01-28T02:13:48;94068.94;;;-1.71;78.74
64211;BME280;50528;48.514;14.394;2023-01-28T02:14:27;94070.77;;;-1.71;78.79
64211;BME280;50528;48.514;14.394;2023-01-28T02:15:15;94069.50;;;-1.70;78.85
64211;BME280;50528;48.514;14.394;2023-01-28T02:15:50;94066.42;;;-1.74;78.70
64211;BME280;50528;48.514;14.394;2023-01-28T02:16:26;94067.10;;;-1.74;78.83
64211;BME280;50528;48.514;14.394;2023-01-28T02:17:02;94067.65;;;-1.74;78.52
64211;BME280;50528;48.514;14.394;2023-01-28T02:17:36;94068.07;;;-1.75;78.58
64211;BME280;50528;48.514;14.394;2023-01-28T02:18:10;94066.58;;;-1.75;78.56
64211;BME280;50528;48.514;14.394;2023-01-28T02:18:44;94064.36;;;-1.75;78.78
64211;BME280;50528;48.514;14.394;2023-01-28T02:19:18;94065.03;;;-1.75;78.65
64211;BME280;50528;48.514;14.394;2023-01-28T02:20:06;94071.87;;;-1.75;78.82
64211;BME280;50528;48.514;14.394;2023-01-28T02:28:21;94065.86;;;-1.95;78.83
64211;BME280;50528;48.514;14.394;2023-01-28T02:29:20;94061.77;;;-1.97;78.83
64211;BME280;50528;48.514;14.394;2023-01-28T02:29:58;94062.73;;;-1.99;78.76
64211;BME280;50528;48.514;14.394;2023-01-28T02:30:41;94065.70;;;-2.00;78.82
64211;BME280;50528;48.514;14.394;2023-01-28T02:32:02;94065.38;;;-2.00;78.95
64211;BME280;50528;48.514;14.394;2023-01-28T02:32:43;94067.15;;;-2.00;78.89
64211;BME280;50528;48.514;14.394;2023-01-28T02:33:34;94070.18;;;-2.01;78.92
64211;BME280;50528;48.514;14.394;2023-01-28T02:35:03;94067.73;;;-2.03;78.85
64211;BME280;50528;48.514;14.394;2023-01-28T02:35:47;94068.60;;;-2.03;78.87
64211;BME280;50528;48.514;14.394;2023-01-28T02:37:33;94072.36;;;-2.04;78.80
64211;BME280;50528;48.514;14.394;2023-01-28T02:38:11;94065.84;;;-2.06;79.05
64211;BME280;50528;48.514;14.394;2023-01-28T02:38:48;94065.73;;;-2.05;79.11
64211;BME280;50528;48.514;14.394;2023-01-28T02:39:29;94069.77;;;-2.04;78.92
64211;BME280;50528;48.514;14.394;2023-01-28T02:40:17;94065.95;;;-2.04;79.01
64211;BME280;50528;48.514;14.394;2023-01-28T02:40:58;94064.00;;;-2.03;78.95
64211;BME280;50528;48.514;14.394;2023-01-28T02:41:45;94066.31;;;-2.04;78.99
64211;BME280;50528;48.514;14.394;2023-01-28T02:42:36;94063.29;;;-2.03;79.06
64211;BME280;50528;48.514;14.394;2023-01-28T02:43:10;94065.16;;;-2.03;78.93
64211;BME280;50528;48.514;14.394;2023-01-28T02:43:45;94065.16;;;-2.03;79.07
64211;BME280;50528;48.514;14.394;2023-01-28T02:44:19;94068.52;;;-2.02;78.94
64211;BME280;50528;48.514;14.394;2023-01-28T02:44:52;94066.70;;;-2.01;78.71
64211;BME280;50528;48.514;14.394;2023-01-28T02:45:30;94068.67;;;-1.99;78.92
64211;BME280;50528;48.514;14.394;2023-01-28T02:47:16;94066.52;;;-2.02;78.78
64211;BME280;50528;48.514;14.394;2023-01-28T02:48:08;94067.98;;;-2.05;78.77
64211;BME280;50528;48.514;14.394;2023-01-28T02:48:44;94064.77;;;-2.06;78.92
64211;BME280;50528;48.514;14.394;2023-01-28T02:50:47;94069.64;;;-2.08;78.89
64211;BME280;50528;48.514;14.394;2023-01-28T02:53:39;94070.73;;;-2.18;78.74
64211;BME280;50528;48.514;14.394;2023-01-28T02:55:01;94065.50;;;-2.19;78.85
64211;BME280;50528;48.514;14.394;2023-01-28T02:55:52;94063.21;;;-2.20;78.53
64211;BME280;50528;48.514;14.394;2023-01-28T02:56:47;94064.42;;;-2.22;78.88
64211;BME280;50528;48.514;14.394;2023-01-28T02:57:59;94066.52;;;-2.24;78.86
64211;BME280;50528;48.514;14.394;2023-01-28T02:58:41;94065.60;;;-2.24;79.08
64211;BME280;50528;48.514;14.394;2023-01-28T02:59:27;94067.50;;;-2.25;78.86
64211;BME280;50528;48.514;14.394;2023-01-28T03:00:57;94069.08;;;-2.25;78.96
64211;BME280;50528;48.514;14.394;2023-01-28T03:01:38;94072.33;;;-2.25;79.08
64211;BME280;50528;48.514;14.394;2023-01-28T03:02:35;94070.75;;;-2.25;78.85
64211;BME280;50528;48.514;14.394;2023-01-28T03:04:21;94071.55;;;-2.26;78.98
64211;BME280;50528;48.514;14.394;2023-01-28T03:05:04;94070.73;;;-2.26;79.06
64211;BME280;50528;48.514;14.394;2023-01-28T03:05:51;94071.54;;;-2.24;79.14
64211;BME280;50528;48.514;14.394;2023-01-28T03:06:43;94072.84;;;-2.25;79.08
64211;BME280;50528;48.514;14.394;2023-01-28T03:07:19;94073.65;;;-2.23;78.93
64211;BME280;50528;48.514;14.394;2023-01-28T03:07:52;94073.61;;;-2.23;79.04
64211;BME280;50528;48.514;14.394;2023-01-28T03:08:26;94072.20;;;-2.22;79.10
64211;BME280;50528;48.514;14.394;2023-01-28T03:09:19;94069.73;;;-2.22;79.15
64211;BME280;50528;48.514;14.394;2023-01-28T03:09:55;94072.47;;;-2.21;79.11
64211;BME280;50528;48.514;14.394;2023-01-28T03:10:31;94069.73;;;-2.22;78.96
64211;BME280;50528;48.514;14.394;2023-01-28T03:11:07;94074.08;;;-2.21;78.94
64211;BME280;50528;48.514;14.394;2023-01-28T03:12:18;94069.64;;;-2.22;78.92
64211;BME280;50528;48.514;14.394;2023-01-28T03:13:11;94069.52;;;-2.24;78.94
64211;BME280;50528;48.514;14.394;2023-01-28T03:14:05;94071.61;;;-2.26;78.87
64211;BME280;50528;48.514;14.394;2023-01-28T03:15:08;94077.13;;;-2.26;78.99
64211;BME280;50528;48.514;14.394;2023-01-28T03:16:02;94078.40;;;-2.27;78.88
64211;BME280;50528;48.514;14.394;2023-01-28T03:16:57;94081.29;;;-2.29;79.01
64211;BME280;50528;48.514;14.394;2023-01-28T03:18:10;94080.02;;;-2.31;78.80
64211;BME280;50528;48.514;14.394;2023-01-28T03:19:04;94079.44;;;-2.34;78.93
64211;BME280;50528;48.514;14.394;2023-01-28T03:19:56;94080.36;;;-2.34;79.10
64211;BME280;50528;48.514;14.394;2023-01-28T03:20:55;94080.69;;;-2.34;78.96
64211;BME280;50528;48.514;14.394;2023-01-28T03:21:48;94081.69;;;-2.34;78.96
64211;BME280;50528;48.514;14.394;2023-01-28T03:22:45;94085.52;;;-2.36;78.96
64211;BME280;50528;48.514;14.394;2023-01-28T03:24:47;94081.75;;;-2.41;78.96
64211;BME280;50528;48.514;14.394;2023-01-28T03:25:43;94082.14;;;-2.41;79.03
64211;BME280;50528;48.514;14.394;2023-01-28T03:27:04;94081.25;;;-2.42;79.05
64211;BME280;50528;48.514;14.394;2023-01-28T03:28:02;94079.61;;;-2.45;79.07
64211;BME280;50528;48.514;14.394;2023-01-28T03:29:03;94080.11;;;-2.46;79.12
64211;BME280;50528;48.514;14.394;2023-01-28T03:29:59;94081.06;;;-2.47;79.20
64211;BME280;50528;48.514;14.394;2023-01-28T03:31:08;94082.27;;;-2.49;79.06
64211;BME280;50528;48.514;14.394;2023-01-28T03:32:03;94082.29;;;-2.49;79.39
64211;BME280;50528;48.514;14.394;2023-01-28T03:32:56;94084.16;;;-2.49;79.27
64211;BME280;50528;48.514;14.394;2023-01-28T03:33:50;94082.64;;;-2.49;79.15
64211;BME280;50528;48.514;14.394;2023-01-28T03:34:44;94085.30;;;-2.50;79.24
64211;BME280;50528;48.514;14.394;2023-01-28T03:35:38;94084.73;;;-2.50;79.30
64211;BME280;50528;48.514;14.394;2023-01-28T03:36:30;94083.70;;;-2.51;79.32
64211;BME280;50528;48.514;14.394;2023-01-28T03:37:52;94079.84;;;-2.55;79.33
64211;BME280;50528;48.514;14.394;2023-01-28T03:38:27;94088.57;;;-2.48;79.59
64211;BME280;50528;48.514;14.394;2023-01-28T03:39:19;94090.64;;;-2.47;79.61
64211;BME280;50528;48.514;14.394;2023-01-28T03:39:54;94091.06;;;-2.44;79.51
64211;BME280;50528;48.514;14.394;2023-01-28T03:40:30;94091.05;;;-2.41;79.45
64211;BME280;50528;48.514;14.394;2023-01-28T03:41:04;94091.39;;;-2.38;79.55
64211;BME280;50528;48.514;14.394;2023-01-28T03:41:37;94087.86;;;-2.35;79.98
64211;BME280;50528;48.514;14.394;2023-01-28T03:42:12;94089.06;;;-2.32;79.82